Quick Links (Output Below):   Max & Min Temps   /   Climate Reports   /   Zone Forecasts
River Forecasts   /   Forestry Forecasts   /   Aviation Forecasts   /   Radars   /   Features

Terminal Aerodrome Forecast (Texarkana)

Pick a Site:
Arkadelphia | El Dorado | Fayetteville | Fort Smith | Harrison | Highfill | Hot Springs | Jonesboro
Little Rock | Monticello | Mountain Home | Pine Bluff | Texarkana
 Forecast 

KTXK 211120Z 2112/2212 00000KT P6SM OVC040
     FM211400 06003KT P6SM BKN045
     FM211700 05005KT P6SM SCT050
     FM220000 00000KT P6SM SKC=


 Latest METARs (Observations) 
How to Decode METARs
11Z KTXK 211053Z 00000KT 7SM CLR 13/12 A3007 RMK AO2 SLP178
         T01280122
         
10Z KTXK 210953Z AUTO 00000KT 9SM CLR 13/13 A3005 RMK AO2 SLP173
         T01330128
         
09Z KTXK 210853Z AUTO 06003KT 10SM CLR 13/12 A3004 RMK AO2 SLP169
         T01330122 58001
         
08Z KTXK 210753Z AUTO 00000KT 10SM CLR 15/13 A3004 RMK AO2 SLP170
         T01500128
         
07Z KTXK 210653Z AUTO 00000KT 10SM CLR 15/13 A3005 RMK AO2 SLP170
         T01500128
         
06Z KTXK 210553Z AUTO 00000KT 10SM CLR 16/13 A3005 RMK AO2 SLP170
         T01560128 10200 20144 402440089 58005
         
05Z KTXK 210453Z AUTO 15005KT 10SM CLR 17/13 A3005 RMK AO2 SLP174
         T01670128
         
04Z KTXK 210353Z AUTO 00000KT 10SM CLR 15/13 A3007 RMK AO2 SLP178
         T01500133
         
03Z KTXK 210253Z AUTO 00000KT 10SM CLR 17/14 A3006 RMK AO2 SLP177
         T01670139 53009
         
02Z KTXK 210153Z 00000KT 10SM CLR 17/13 A3005 RMK AO2 SLP171
         T01670133
         
***** Today's Observations (Above) *****


Back to Main Page
http://www.srh.noaa.gov/lzk/qfcst.php

USA.gov is the U.S. government's official web portal to all federal, state and local government web resources and services.